Time;durP1;ratioP1;P1;durP2;ratioP2;P2;SDS_P1;SDS_P2;PMS_P1;PMS_P2;Temp;Humidity;BMP_temperature;BMP_pressure;BME280_temperature;BME280_humidity;BME280_pressure;Samples;Min_cycle;Max_cycle;Signal;HPM_P1;HPM_P2
2021/04/01 00:01:58;;;;;;;23.70;15.30;;;;;;;14.60;52.21;100616.66;5121044;28;20481;-63
2021/04/01 00:04:25;;;;;;;23.43;16.20;;;;;;;14.51;52.52;100618.41;5107906;28;20493;-63
2021/04/01 00:06:52;;;;;;;19.40;15.73;;;;;;;14.52;52.50;100611.19;5102154;28;20494;-63
2021/04/01 00:09:18;;;;;;;21.00;15.17;;;;;;;14.43;52.95;100603.06;5100221;28;20463;-63
2021/04/01 00:11:44;;;;;;;20.53;14.40;;;;;;;14.48;53.10;100603.44;5100134;28;20490;-63
2021/04/01 00:14:10;;;;;;;21.37;15.10;;;;;;;14.34;53.82;100605.84;5100851;28;20779;-63
2021/04/01 00:16:37;;;;;;;19.20;13.93;;;;;;;14.27;53.95;100609.16;5100592;28;20471;-63
2021/04/01 00:19:04;;;;;;;19.00;13.53;;;;;;;14.39;54.09;100607.09;5101342;28;20427;-63
2021/04/01 00:21:30;;;;;;;16.13;13.37;;;;;;;14.41;53.70;100602.38;5104701;28;20486;-63
2021/04/01 00:23:57;;;;;;;18.67;13.60;;;;;;;14.32;54.04;100606.00;5101252;28;20438;-63
2021/04/01 00:26:23;;;;;;;17.77;13.00;;;;;;;14.13;54.67;100602.50;5104003;28;20483;-63
2021/04/01 00:28:50;;;;;;;20.37;13.83;;;;;;;14.20;54.29;100596.47;5105183;28;20434;-63
2021/04/01 00:31:16;;;;;;;21.57;15.40;;;;;;;14.13;54.35;100591.75;5103549;28;20478;-63
2021/04/01 00:33:42;;;;;;;21.83;14.60;;;;;;;14.07;54.70;100586.13;5105307;28;20905;-63
2021/04/01 00:36:08;;;;;;;20.80;14.00;;;;;;;14.03;54.96;100590.97;5103687;28;20482;-63
2021/04/01 00:38:34;;;;;;;17.80;14.07;;;;;;;14.05;54.66;100588.97;5104459;28;20473;-63
2021/04/01 00:41:02;;;;;;;22.80;15.43;;;;;;;14.01;54.75;100587.59;5103421;28;20984;-63
2021/04/01 00:43:28;;;;;;;18.83;13.93;;;;;;;14.06;54.26;100590.69;5105324;28;20462;-63
2021/04/01 00:45:55;;;;;;;20.97;14.43;;;;;;;14.02;54.40;100591.13;5103606;28;20573;-63
2021/04/01 00:48:21;;;;;;;21.20;15.03;;;;;;;13.97;54.69;100588.91;5104378;28;20642;-63
2021/04/01 00:50:47;;;;;;;20.40;14.77;;;;;;;14.03;54.50;100587.47;5105175;28;20855;-63
2021/04/01 00:53:13;;;;;;;20.73;14.90;;;;;;;14.02;54.84;100585.75;5116788;28;20465;-63
2021/04/01 00:55:40;;;;;;;19.70;14.63;;;;;;;14.00;54.61;100583.22;5103635;28;20475;-63
2021/04/01 00:58:07;;;;;;;21.57;14.70;;;;;;;14.01;54.59;100584.91;5103820;28;20454;-63
2021/04/01 01:00:34;;;;;;;19.10;14.77;;;;;;;14.01;54.67;100587.59;5103324;28;20471;-63
2021/04/01 01:03:00;;;;;;;21.93;15.50;;;;;;;14.05;54.39;100582.75;5104272;28;20961;-63
2021/04/01 01:05:28;;;;;;;21.13;14.37;;;;;;;14.09;54.46;100581.44;5103836;28;20477;-63
2021/04/01 01:07:54;;;;;;;20.07;15.50;;;;;;;13.93;54.72;100590.22;5114779;28;20492;-63
2021/04/01 01:10:22;;;;;;;23.93;14.90;;;;;;;13.91;53.86;100582.31;5103212;28;20986;-63
2021/04/01 01:12:48;;;;;;;20.80;15.40;;;;;;;13.88;54.53;100590.66;5105519;28;20438;-63
2021/04/01 01:15:16;;;;;;;20.20;15.30;;;;;;;13.78;54.53;100589.91;5103608;28;20459;-63
2021/04/01 01:17:42;;;;;;;25.50;15.47;;;;;;;13.85;53.53;100582.06;5103868;28;20439;-63
2021/04/01 01:20:10;;;;;;;24.63;15.87;;;;;;;13.85;54.07;100582.06;5103445;28;20443;-63
2021/04/01 01:22:37;;;;;;;24.27;14.67;;;;;;;13.85;54.11;100574.88;5120854;28;20450;-63
2021/04/01 01:25:08;;;;;;;31.30;16.30;;;;;;;13.87;53.51;100580.94;5124208;28;20478;-63
2021/04/01 01:27:34;;;;;;;20.20;14.33;;;;;;;13.77;55.14;100584.69;5104070;28;20463;-63
2021/04/01 01:30:00;;;;;;;18.67;13.93;;;;;;;13.69;55.53;100583.59;5103821;28;20481;-63
2021/04/01 01:32:35;;;;;;;20.80;14.83;;;;;;;13.59;55.74;100581.97;5103057;28;20483;-62
2021/04/01 01:35:01;;;;;;;21.83;15.10;;;;;;;13.64;55.79;100580.53;5103415;28;20730;-62
2021/04/01 01:37:27;;;;;;;19.07;14.80;;;;;;;13.73;55.57;100584.13;5117222;28;20886;-63
2021/04/01 01:39:54;;;;;;;19.77;15.57;;;;;;;13.73;55.68;100587.69;5123243;28;20507;-63
2021/04/01 01:42:21;;;;;;;19.23;14.87;;;;;;;13.77;55.21;100584.69;5103188;28;20474;-63
2021/04/01 01:44:47;;;;;;;19.33;13.70;;;;;;;13.89;55.04;100592.38;5103444;28;20849;-63
2021/04/01 01:47:13;;;;;;;21.47;14.60;;;;;;;14.04;54.39;100594.50;5101791;28;20487;-63
2021/04/01 01:49:40;;;;;;;19.93;13.60;;;;;;;14.05;54.77;100588.97;5103412;28;20520;-63
2021/04/01 01:52:07;;;;;;;21.73;14.93;;;;;;;13.90;54.78;100591.34;5103576;28;21015;-63
2021/04/01 01:54:33;;;;;;;24.77;14.57;;;;;;;13.75;54.82;100582.16;5103176;28;20487;-63
2021/04/01 01:56:59;;;;;;;21.50;16.93;;;;;;;13.86;54.47;100584.59;5102198;28;20539;-63
2021/04/01 01:59:26;;;;;;;19.93;14.60;;;;;;;13.61;55.94;100588.03;5105878;28;20474;-63
2021/04/01 02:01:54;;;;;;;19.93;14.70;;;;;;;13.87;55.13;100578.25;5108521;28;20503;-63
2021/04/01 02:04:20;;;;;;;19.07;16.03;;;;;;;14.03;54.67;100580.22;5103309;28;20467;-63
2021/04/01 02:06:46;;;;;;;23.33;15.53;;;;;;;14.05;54.26;100575.53;5111296;28;20792;-63
2021/04/01 02:09:13;;;;;;;22.33;17.20;;;;;;;13.96;53.51;100581.84;5123141;28;20448;-63
2021/04/01 02:11:39;;;;;;;22.27;15.03;;;;;;;14.09;53.37;100581.44;5111402;28;20520;-63
2021/04/01 02:14:05;;;;;;;24.67;16.53;;;;;;;14.22;52.89;100579.22;5102903;28;20916;-63
2021/04/01 02:16:32;;;;;;;27.53;15.00;;;;;;;14.36;53.04;100571.59;5102208;28;20475;-63
2021/04/01 02:18:58;;;;;;;28.30;17.93;;;;;;;14.41;53.20;100571.94;5102561;28;20459;-63
2021/04/01 02:21:24;;;;;;;21.23;16.30;;;;;;;14.58;52.94;100570.19;5104401;28;20565;-63
2021/04/01 02:23:51;;;;;;;25.60;16.37;;;;;;;14.52;53.36;100566.28;5102559;28;20932;-63
2021/04/01 02:26:17;;;;;;;20.57;15.63;;;;;;;14.66;52.44;100571.13;5101494;28;20487;-63
2021/04/01 02:28:43;;;;;;;22.10;15.20;;;;;;;14.54;53.13;100564.28;5102774;28;20431;-63
2021/04/01 02:31:10;;;;;;;26.60;17.73;;;;;;;14.67;52.37;100562.06;5101502;28;20503;-63
2021/04/01 02:33:38;;;;;;;20.60;16.40;;;;;;;14.69;52.36;100559.22;5102293;28;20455;-63
2021/04/01 02:36:06;;;;;;;23.83;16.03;;;;;;;14.56;52.59;100558.75;5105230;28;20486;-63
2021/04/01 02:38:32;;;;;;;23.63;16.43;;;;;;;14.48;53.17;100551.50;5122633;28;20435;-63
2021/04/01 02:40:58;;;;;;;19.07;14.60;;;;;;;14.63;53.17;100549.06;5101987;28;20808;-63
2021/04/01 02:43:30;;;;;;;29.10;17.80;;;;;;;14.47;52.13;100557.84;5101752;28;20463;-63
2021/04/01 02:45:56;;;;;;;23.50;18.53;;;;;;;13.98;53.27;100557.50;5101626;28;20470;-63
2021/04/01 02:48:23;;;;;;;26.63;19.03;;;;;;;14.11;53.22;100560.63;5101740;28;20471;-63
2021/04/01 02:50:50;;;;;;;26.43;18.60;;;;;;;14.37;51.04;100557.94;5103139;28;20499;-63
2021/04/01 02:53:16;;;;;;;26.87;18.67;;;;;;;14.66;49.31;100548.75;5110217;28;20504;-63
2021/04/01 02:55:42;;;;;;;30.00;19.30;;;;;;;14.74;49.00;100540.72;5101029;28;20502;-63
2021/04/01 02:58:08;;;;;;;25.43;17.47;;;;;;;14.73;51.06;100543.56;5101867;28;20493;-63
2021/04/01 03:00:35;;;;;;;18.93;14.73;;;;;;;14.19;54.14;100535.66;5100328;28;20483;-63
2021/04/01 03:03:05;;;;;;;22.10;15.27;;;;;;;14.22;54.95;100538.03;5102077;28;20520;-63
2021/04/01 03:05:31;;;;;;;21.50;16.40;;;;;;;14.22;55.21;100529.97;5101158;28;21019;-63
2021/04/01 03:07:58;;;;;;;20.20;15.10;;;;;;;14.35;54.85;100551.88;5121791;28;20829;-63
2021/04/01 03:10:24;;;;;;;20.57;15.40;;;;;;;14.51;54.71;100548.44;5111219;28;20505;-63
2021/04/01 03:12:50;;;;;;;20.03;14.80;;;;;;;14.59;54.50;100553.94;5101949;28;20467;-63
2021/04/01 03:15:17;;;;;;;23.17;16.77;;;;;;;14.66;53.97;100549.59;5100614;28;20531;-63
2021/04/01 03:17:44;;;;;;;24.00;15.13;;;;;;;14.54;54.28;100545.44;5102172;28;20435;-63
2021/04/01 03:20:11;;;;;;;19.10;14.90;;;;;;;14.47;54.28;100550.63;5100549;28;20496;-63
2021/04/01 03:22:38;;;;;;;18.87;14.67;;;;;;;14.39;54.23;100545.22;5118418;28;20442;-63
2021/04/01 03:25:07;;;;;;;19.73;15.40;;;;;;;14.34;54.22;100546.66;5112426;28;20439;-63
2021/04/01 03:27:33;;;;;;;20.80;15.07;;;;;;;14.35;54.31;100559.13;5102173;28;20442;-63
2021/04/01 03:30:06;;;;;;;24.70;16.10;;;;;;;14.40;54.32;100559.50;5101052;28;20883;-63
2021/04/01 03:32:33;;;;;;;20.83;15.20;;;;;;;14.54;53.65;100553.53;5101077;28;20960;-63
2021/04/01 03:34:59;;;;;;;21.70;15.80;;;;;;;14.18;54.56;100556.31;5101133;28;20486;-63
2021/04/01 03:37:26;;;;;;;24.00;16.43;;;;;;;13.91;55.70;100558.13;5115246;28;20818;-63
2021/04/01 03:39:52;;;;;;;21.90;15.07;;;;;;;14.11;55.21;100572.25;5100612;28;20512;-63
2021/04/01 03:42:20;;;;;;;23.00;16.77;;;;;;;14.28;54.53;100583.94;5100454;28;20699;-63
2021/04/01 03:44:46;;;;;;;22.27;15.90;;;;;;;14.49;52.96;100578.22;5107768;28;20445;-63
2021/04/01 03:47:12;;;;;;;23.10;16.33;;;;;;;14.25;52.75;100583.41;5121460;28;20477;-63
2021/04/01 03:49:38;;;;;;;24.93;17.20;;;;;;;14.00;54.44;100593.97;5103101;28;20439;-63
2021/04/01 03:52:06;;;;;;;29.33;18.67;;;;;;;14.10;51.39;100581.28;5112126;28;20477;-63
2021/04/01 03:54:32;;;;;;;25.97;17.80;;;;;;;14.59;50.57;100575.44;5101490;28;20447;-63
2021/04/01 03:56:59;;;;;;;28.37;17.70;;;;;;;14.75;49.81;100574.69;5100892;28;20513;-63
2021/04/01 03:59:28;;;;;;;27.70;19.53;;;;;;;14.50;50.17;100576.38;5101758;28;20903;-63
2021/04/01 04:04:50;;;;;;;29.27;19.23;;;;;;;14.24;49.37;100573.69;5105631;28;20497;-63
2021/04/01 04:10:18;;;;;;;28.17;19.63;;;;;;;14.91;48.20;100552.41;5123285;28;20457;-63
2021/04/01 04:15:31;;;;;;;27.63;18.67;;;;;;;14.79;48.54;100567.13;5070899;28;20836;-63
2021/04/01 04:17:58;;;;;;;33.70;17.90;;;;;;;14.60;49.22;100544.88;5105233;28;20443;-63
2021/04/01 04:20:24;;;;;;;30.20;20.40;;;;;;;14.68;50.61;100582.56;5103926;28;21450;-63
2021/04/01 04:22:51;;;;;;;31.20;19.07;;;;;;;14.83;50.35;100574.75;5123932;28;20787;-63
2021/04/01 04:25:17;;;;;;;27.03;18.83;;;;;;;14.72;50.48;100558.88;5113994;28;20455;-63
2021/04/01 04:30:28;;;;;;;30.60;19.57;;;;;;;14.90;50.39;100568.75;5107246;28;20470;-63
2021/04/01 04:32:56;;;;;;;24.43;16.73;;;;;;;14.98;50.46;100569.63;5104935;28;20415;-63
2021/04/01 04:35:22;;;;;;;30.53;19.13;;;;;;;14.99;50.45;100567.75;5106408;28;20871;-63
2021/04/01 04:37:49;;;;;;;27.33;19.20;;;;;;;14.99;49.92;100563.22;5124911;28;20445;-63
2021/04/01 04:40:15;;;;;;;26.80;18.23;;;;;;;15.04;50.06;100579.72;5115527;28;20482;-63
2021/04/01 04:42:42;;;;;;;29.00;18.10;;;;;;;14.82;51.11;100577.59;5104799;28;20454;-63
2021/04/01 04:45:09;;;;;;;28.50;20.13;;;;;;;14.62;50.64;100579.69;5104255;28;20465;-63
2021/04/01 04:47:35;;;;;;;36.13;21.83;;;;;;;14.56;48.31;100569.50;5103775;28;20482;-63
2021/04/01 04:50:03;;;;;;;30.77;20.00;;;;;;;14.75;48.88;100552.31;5104219;28;20474;-63
2021/04/01 04:52:31;;;;;;;35.03;20.73;;;;;;;15.09;47.23;100554.19;5107051;28;20788;-63
2021/04/01 04:54:57;;;;;;;34.87;21.80;;;;;;;14.72;48.57;100526.59;5104283;28;20494;-63
2021/04/01 04:57:30;;;;;;;28.87;20.50;;;;;;;15.06;49.43;100537.31;5103830;28;20493;-63
2021/04/01 05:00:22;;;;;;;25.87;19.70;;;;;;;15.20;49.02;100549.31;5104487;28;20447;-63
2021/04/01 05:05:34;;;;;;;30.30;20.70;;;;;;;15.14;49.83;100546.47;5104463;28;20959;-63
2021/04/01 05:08:00;;;;;;;32.33;20.87;;;;;;;15.19;50.27;100554.84;5106594;28;20446;-63
2021/04/01 05:10:26;;;;;;;39.10;21.57;;;;;;;14.98;50.82;100557.97;5102831;28;20517;-63
2021/04/01 05:13:03;;;;;;;32.40;22.70;;;;;;;15.04;49.56;100563.56;5105053;28;20462;-63
2021/04/01 05:15:30;;;;;;;35.73;22.70;;;;;;;15.16;48.60;100558.72;5102948;28;20495;-63
2021/04/01 05:18:08;;;;;;;33.30;20.87;;;;;;;15.24;49.21;100561.47;5104165;28;20450;-63
2021/04/01 05:20:35;;;;;;;33.93;21.53;;;;;;;15.14;50.27;100558.06;5102725;28;21066;-63
2021/04/01 05:23:06;;;;;;;34.20;19.87;;;;;;;15.15;49.88;100572.38;5104393;28;20454;-63
2021/04/01 05:25:32;;;;;;;30.03;20.13;;;;;;;15.15;49.96;100581.28;5102512;28;20562;-63
2021/04/01 05:28:02;;;;;;;38.90;21.60;;;;;;;15.25;49.91;100587.38;5103927;28;20823;-63
2021/04/01 05:30:28;;;;;;;28.57;19.97;;;;;;;15.21;50.34;100588.72;5102639;28;20466;-63
2021/04/01 05:32:54;;;;;;;32.10;19.83;;;;;;;15.20;49.83;100584.31;5103996;28;20446;-63
2021/04/01 05:35:21;;;;;;;30.83;20.07;;;;;;;15.25;50.72;100581.16;5102792;28;20510;-63
2021/04/01 05:37:48;;;;;;;30.60;20.40;;;;;;;15.18;50.82;100577.44;5120655;28;20828;-63
2021/04/01 05:40:15;;;;;;;36.83;20.57;;;;;;;15.30;50.42;100592.28;5108101;28;20455;-63
2021/04/01 05:42:44;;;;;;;39.83;21.10;;;;;;;15.39;49.95;100591.28;5103673;28;20462;-63
2021/04/01 05:45:14;;;;;;;34.10;20.73;;;;;;;15.41;50.46;100599.22;5101955;28;20451;-63
2021/04/01 05:47:44;;;;;;;33.43;21.27;;;;;;;15.39;50.34;100598.53;5102375;28;20463;-63
2021/04/01 05:50:34;;;;;;;31.60;21.87;;;;;;;15.36;50.19;100606.94;5101955;28;20490;-63
2021/04/01 05:59:16;;;;;;;29.93;20.90;;;;;;;15.65;49.30;100613.78;5102756;28;21007;-63
2021/04/01 06:01:58;;;;;;;36.80;24.00;;;;;;;15.86;47.92;100613.34;5094091;28;20463;-63
2021/04/01 06:04:33;;;;;;;41.87;25.50;;;;;;;16.11;47.25;100612.38;5102973;28;20447;-63
2021/04/01 06:07:04;;;;;;;36.73;23.10;;;;;;;16.28;46.94;100617.75;5106297;28;20565;-63
2021/04/01 06:09:35;;;;;;;34.80;22.43;;;;;;;16.31;47.35;100623.66;5100156;28;20451;-63
2021/04/01 06:12:02;;;;;;;44.60;26.20;;;;;;;16.41;45.39;100625.34;5101359;28;21297;-63
2021/04/01 06:15:04;;;;;;;43.80;27.87;;;;;;;16.64;44.50;100631.72;5110034;28;20442;-63
2021/04/01 06:17:32;;;;;;;40.50;25.83;;;;;;;16.70;45.27;100632.88;5097490;28;20466;-63
2021/04/01 06:20:00;;;;;;;45.90;27.37;;;;;;;16.74;44.04;100632.38;5101774;28;20508;-63
2021/04/01 06:22:27;;;;;;;46.93;28.13;;;;;;;16.86;42.96;100632.91;5115905;28;20478;-64
2021/04/01 06:24:54;;;;;;;46.50;28.60;;;;;;;17.18;42.66;100649.19;5121303;28;20446;-63
2021/04/01 06:27:29;;;;;;;52.10;27.90;;;;;;;17.49;41.80;100651.94;5121417;28;20466;-63
2021/04/01 06:30:13;;;;;;;48.00;27.50;;;;;;;17.88;41.05;100649.22;5121892;28;20926;-63
2021/04/01 06:32:42;;;;;;;43.13;26.93;;;;;;;17.78;41.30;100636.94;5121740;28;20462;-63
2021/04/01 06:35:12;;;;;;;50.97;27.60;;;;;;;17.92;40.14;100632.66;5102470;28;20486;-64
2021/04/01 06:37:55;;;;;;;46.60;29.40;;;;;;;18.41;40.75;100640.38;5098752;28;20780;-63
2021/04/01 06:40:23;;;;;;;45.43;27.80;;;;;;;19.03;39.10;100633.03;5100315;28;21070;-64
2021/04/01 06:42:54;;;;;;;45.03;27.73;;;;;;;19.08;39.01;100628.75;5101391;28;20456;-64
2021/04/01 06:45:23;;;;;;;42.97;27.77;;;;;;;19.46;37.42;100628.63;5100090;28;20528;-64
2021/04/01 06:47:51;;;;;;;42.87;28.17;;;;;;;19.60;37.41;100613.34;5100900;28;20486;-62
2021/04/01 06:50:21;;;;;;;44.40;28.43;;;;;;;19.77;36.73;100618.53;5100070;28;20455;-63
2021/04/01 06:52:51;;;;;;;46.53;28.63;;;;;;;20.17;36.06;100622.50;5118551;28;20464;-64
2021/04/01 06:55:24;;;;;;;51.10;30.50;;;;;;;20.76;34.87;100623.22;5120360;28;20554;-62
2021/04/01 06:58:04;;;;;;;46.10;30.23;;;;;;;20.68;34.42;100621.50;5120957;28;20450;-63
2021/04/01 07:00:48;;;;;;;50.67;30.10;;;;;;;20.53;34.93;100631.59;5120127;28;20589;-62
2021/04/01 07:03:19;;;;;;;50.63;31.00;;;;;;;20.27;35.59;100630.31;5113483;28;20435;-62
2021/04/01 07:05:55;;;;;;;49.80;33.27;;;;;;;19.99;35.95;100643.84;5099194;28;20478;-61
2021/04/01 07:08:36;;;;;;;52.23;32.53;;;;;;;19.69;36.11;100638.47;5099306;28;20525;-62
2021/04/01 07:11:05;;;;;;;55.23;31.90;;;;;;;19.71;36.63;100641.84;5099043;28;20470;-62
2021/04/01 07:13:37;;;;;;;48.10;32.53;;;;;;;20.02;35.93;100646.19;5098540;28;20860;-61
2021/04/01 07:16:15;;;;;;;45.97;30.10;;;;;;;20.12;35.53;100649.41;5097398;28;20467;-61
2021/04/01 07:18:59;;;;;;;54.43;31.33;;;;;;;20.45;35.08;100651.56;5121735;28;20522;-63
2021/04/01 07:33:04;;;;;;;56.57;36.37;;;;;;;26.93;24.40;100637.75;5120066;28;20468;-63
2021/04/01 07:35:54;;;;;;;56.30;36.73;;;;;;;26.68;23.90;100652.53;5102604;28;20471;-63
2021/04/01 07:46:43;;;;;;;60.23;39.20;;;;;;;25.15;25.91;100642.63;5099270;28;20462;-64
2021/04/01 07:49:24;;;;;;;67.20;39.87;;;;;;;23.67;27.37;100642.03;5097855;28;20443;-63
2021/04/01 07:51:59;;;;;;;62.80;40.20;;;;;;;23.55;28.28;100649.22;5101489;28;20543;-62
2021/04/01 07:54:28;;;;;;;60.13;37.53;;;;;;;24.06;26.64;100650.25;5099982;28;20446;-63
2021/04/01 07:57:11;;;;;;;66.53;40.30;;;;;;;23.93;27.26;100651.19;5099215;28;20475;-62
2021/04/01 07:59:49;;;;;;;63.70;40.10;;;;;;;23.18;27.96;100659.88;5099269;28;20439;-62
2021/04/01 08:02:45;;;;;;;62.07;37.57;;;;;;;23.87;27.94;100660.25;5098893;28;20486;-64
2021/04/01 08:05:14;;;;;;;65.63;39.80;;;;;;;23.36;27.78;100650.97;5089896;28;20470;-63
2021/04/01 08:07:49;;;;;;;74.83;40.03;;;;;;;23.68;27.71;100654.63;5100129;28;20454;-63
2021/04/01 08:10:17;;;;;;;61.50;37.10;;;;;;;24.22;26.39;100659.81;5099233;28;20450;-64
2021/04/01 08:12:49;;;;;;;70.87;38.00;;;;;;;24.11;26.52;100668.72;5098804;28;20459;-65
2021/04/01 08:15:17;;;;;;;62.20;38.40;;;;;;;23.80;27.64;100668.44;5098266;28;21033;-64
2021/04/01 08:17:50;;;;;;;111.67;46.17;;;;;;;26.80;24.21;100669.00;5104354;28;20449;-63
2021/04/01 08:20:20;;;;;;;64.57;37.57;;;;;;;26.97;22.71;100664.47;5108856;28;20457;-64
2021/04/01 08:22:55;;;;;;;58.67;36.33;;;;;;;26.69;22.63;100651.47;5099835;28;20859;-64
2021/04/01 08:25:24;;;;;;;65.90;40.57;;;;;;;25.75;23.34;100662.97;5096992;28;20475;-65
2021/04/01 08:27:55;;;;;;;72.13;41.50;;;;;;;25.27;24.43;100666.50;5098132;28;20474;-65
2021/04/01 08:33:31;;;;;;;61.13;38.20;;;;;;;28.13;20.94;100655.34;5090466;28;20495;-65
2021/04/01 08:35:59;;;;;;;211.97;55.73;;;;;;;27.99;20.85;100660.31;5097498;28;20493;-65
2021/04/01 08:38:25;;;;;;;62.73;39.40;;;;;;;28.09;21.61;100661.56;5102231;28;20485;-65
2021/04/01 08:40:52;;;;;;;61.20;39.60;;;;;;;29.43;19.51;100664.53;5097547;28;20463;-65
2021/04/01 08:43:48;;;;;;;60.90;40.80;;;;;;;29.48;19.30;100662.66;5098545;28;20463;-63
2021/04/01 08:46:29;;;;;;;62.30;38.93;;;;;;;29.14;20.26;100661.09;5095152;28;20467;-62
2021/04/01 08:49:16;;;;;;;63.93;39.27;;;;;;;27.86;21.54;100657.00;5101947;28;20482;-64
2021/04/01 08:51:54;;;;;;;61.60;39.83;;;;;;;28.87;20.92;100664.53;5104130;28;20528;-66
2021/04/01 08:54:27;;;;;;;71.93;41.17;;;;;;;28.32;20.90;100666.13;5086331;28;20438;-66
2021/04/01 08:56:59;;;;;;;63.00;38.60;;;;;;;28.42;20.87;100670.94;5100825;28;20573;-66
2021/04/01 08:59:30;;;;;;;64.53;40.57;;;;;;;28.57;21.33;100676.75;5101176;28;20536;-65
2021/04/01 09:01:59;;;;;;;62.93;40.53;;;;;;;29.58;20.17;100677.66;5101197;28;20569;-64
2021/04/01 09:04:29;;;;;;;63.87;41.20;;;;;;;28.74;21.01;100666.56;5105283;28;20492;-64
2021/04/01 09:07:04;;;;;;;62.13;40.80;;;;;;;28.85;21.29;100667.56;5102450;28;20483;-65
2021/04/01 09:09:33;;;;;;;58.73;38.23;;;;;;;29.28;20.32;100670.66;5101457;28;20515;-62
2021/04/01 09:12:09;;;;;;;61.90;42.30;;;;;;;29.78;20.00;100674.34;5099959;28;20475;-63
2021/04/01 09:14:37;;;;;;;61.23;40.23;;;;;;;29.31;20.19;100672.09;5103869;28;20455;-66
2021/04/01 09:17:19;;;;;;;59.57;42.00;;;;;;;28.21;21.76;100672.50;5101010;28;20486;-61
2021/04/01 09:19:46;;;;;;;58.17;39.30;;;;;;;28.60;21.19;100673.50;5038985;28;20453;-61
2021/04/01 09:22:17;;;;;;;67.07;39.43;;;;;;;27.47;22.75;100678.75;5047073;28;20485;-61
2021/04/01 09:24:43;;;;;;;67.57;41.03;;;;;;;27.53;22.40;100673.13;5037758;28;20476;-63
2021/04/01 09:27:12;;;;;;;62.60;40.77;;;;;;;27.91;22.52;100670.84;5038250;28;20545;-63
2021/04/01 09:29:39;;;;;;;60.43;38.00;;;;;;;28.75;21.07;100672.91;5037351;28;20488;-63
2021/04/01 09:32:06;;;;;;;64.60;39.80;;;;;;;27.38;22.93;100670.06;5037767;28;20568;-63
2021/04/01 09:34:33;;;;;;;62.23;41.87;;;;;;;29.11;20.58;100665.16;5038238;28;20442;-64
2021/04/01 09:37:11;;;;;;;61.00;39.50;;;;;;;29.34;20.47;100664.16;5036468;28;20489;-64
2021/04/01 09:39:37;;;;;;;61.97;41.10;;;;;;;29.45;21.27;100667.88;5038735;28;20441;-63
2021/04/01 09:42:06;;;;;;;57.33;37.73;;;;;;;28.67;22.08;100665.06;5038128;28;20478;-64
2021/04/01 09:44:33;;;;;;;60.90;38.30;;;;;;;27.50;23.27;100659.03;5037563;28;20450;-64
2021/04/01 09:47:03;;;;;;;56.77;38.10;;;;;;;27.69;22.52;100655.06;5036150;28;20561;-64
2021/04/01 09:49:32;;;;;;;57.60;38.67;;;;;;;28.63;21.72;100663.94;5037641;28;20565;-64
2021/04/01 09:52:01;;;;;;;60.90;39.90;;;;;;;27.13;23.27;100659.31;5043530;28;20580;-64
2021/04/01 09:54:30;;;;;;;67.93;39.83;;;;;;;26.50;24.33;100661.69;5031063;28;20446;-65
2021/04/01 09:56:58;;;;;;;60.00;39.73;;;;;;;27.47;22.60;100676.03;5067726;28;20467;-65
2021/04/01 09:59:37;;;;;;;66.53;39.70;;;;;;;26.03;24.58;100669.78;5100793;28;20503;-63
2021/04/01 10:02:04;;;;;;;63.07;41.30;;;;;;;25.73;25.06;100670.59;5098978;28;20498;-63
2021/04/01 10:04:34;;;;;;;63.23;40.60;;;;;;;25.28;25.81;100687.34;5101376;28;20689;-62
2021/04/01 10:07:15;;;;;;;70.13;41.43;;;;;;;25.92;25.62;100685.09;5100968;28;20536;-62
2021/04/01 10:09:52;;;;;;;66.40;41.57;;;;;;;25.49;25.79;100686.88;5098702;28;20447;-62
2021/04/01 10:12:20;;;;;;;69.23;40.97;;;;;;;25.05;26.28;100690.69;5097585;28;20860;-63
2021/04/01 10:14:52;;;;;;;68.60;42.90;;;;;;;25.67;25.73;100694.22;5098522;28;20458;-63
2021/04/01 10:17:19;;;;;;;78.97;44.33;;;;;;;26.19;24.76;100693.78;5099380;28;20467;-63
2021/04/01 10:19:49;;;;;;;72.80;43.60;;;;;;;26.30;24.96;100693.00;5101529;28;20511;-63
2021/04/01 10:22:23;;;;;;;78.47;47.87;;;;;;;26.24;24.85;100690.34;5100303;28;20475;-62
2021/04/01 10:25:11;;;;;;;74.73;46.20;;;;;;;24.70;27.05;100699.44;5101095;28;20439;-62
2021/04/01 10:27:44;;;;;;;76.90;49.23;;;;;;;24.27;27.79;100698.25;5098116;28;20948;-64
2021/04/01 10:30:12;;;;;;;79.50;50.10;;;;;;;23.57;28.87;100696.25;5098421;28;21012;-61
2021/04/01 10:32:41;;;;;;;80.63;49.63;;;;;;;23.85;28.08;100706.91;5074484;28;20518;-61
2021/04/01 10:35:10;;;;;;;85.30;49.80;;;;;;;23.38;29.22;100708.06;5100843;28;20501;-61
2021/04/01 10:37:37;;;;;;;81.07;49.13;;;;;;;22.63;29.95;100709.16;5099483;28;20432;-60
2021/04/01 10:40:08;;;;;;;82.67;50.50;;;;;;;23.81;28.13;100711.09;5100029;28;20435;-60
2021/04/01 10:42:35;;;;;;;82.07;49.13;;;;;;;23.77;28.61;100711.72;5099684;28;20469;-61
2021/04/01 10:45:03;;;;;;;83.10;51.10;;;;;;;23.78;28.73;100718.84;5097735;28;20435;-59
2021/04/01 10:47:53;;;;;;;84.40;51.27;;;;;;;22.48;30.83;100725.72;5099651;28;20474;-62
2021/04/01 10:50:19;;;;;;;82.73;52.60;;;;;;;22.90;30.42;100718.19;5091537;28;20466;-63
2021/04/01 10:52:46;;;;;;;87.60;51.20;;;;;;;22.37;30.52;100735.31;5100843;28;20471;-62
2021/04/01 10:55:14;;;;;;;93.23;53.70;;;;;;;21.93;32.19;100741.25;5098306;28;20833;-62
2021/04/01 10:57:41;;;;;;;90.40;54.60;;;;;;;22.73;31.24;100741.47;5096926;28;20534;-62
2021/04/01 11:00:11;;;;;;;90.40;54.80;;;;;;;23.11;30.70;100743.59;5098040;28;20459;-61
2021/04/01 11:02:40;;;;;;;93.30;53.20;;;;;;;23.02;30.36;100742.09;5094849;28;20475;-62
2021/04/01 11:05:08;;;;;;;88.13;51.67;;;;;;;22.52;31.66;100737.88;5097035;28;20465;-62
2021/04/01 11:07:45;;;;;;;97.03;53.93;;;;;;;22.19;31.54;100749.50;5099887;28;20443;-61
2021/04/01 11:10:18;;;;;;;79.43;48.43;;;;;;;22.39;31.03;100743.28;5095301;28;20465;-62
2021/04/01 11:12:47;;;;;;;91.70;50.03;;;;;;;22.03;32.22;100749.03;5097363;28;20511;-62
2021/04/01 11:15:14;;;;;;;83.43;50.10;;;;;;;22.18;31.47;100741.53;5103850;28;20439;-61
2021/04/01 11:17:42;;;;;;;75.83;41.50;;;;;;;21.53;32.01;100751.97;5096978;28;20447;-62
2021/04/01 11:20:09;;;;;;;75.40;41.53;;;;;;;21.47;32.03;100755.47;5096020;28;20444;-62
2021/04/01 11:22:38;;;;;;;70.70;41.20;;;;;;;21.98;31.74;100745.03;5097614;28;20470;-62
2021/04/01 11:25:14;;;;;;;76.60;43.17;;;;;;;21.64;32.64;100754.09;5096160;28;21010;-63
2021/04/01 11:27:51;;;;;;;71.50;44.00;;;;;;;22.50;32.48;100747.31;5105503;28;20442;-63
2021/04/01 11:30:18;;;;;;;68.97;43.70;;;;;;;23.19;30.77;100758.88;5086780;28;20446;-63
2021/04/01 11:32:50;;;;;;;72.70;45.00;;;;;;;23.78;30.98;100752.47;5096016;28;20451;-63
2021/04/01 11:35:17;;;;;;;64.73;38.83;;;;;;;22.72;32.21;100756.13;5096876;28;20447;-61
2021/04/01 11:37:48;;;;;;;61.03;36.93;;;;;;;23.01;32.07;100754.88;5095234;28;20481;-58
2021/04/01 11:40:16;;;;;;;49.67;32.50;;;;;;;21.84;33.98;100767.81;5094381;28;20984;-62
2021/04/01 11:42:52;;;;;;;41.17;26.97;;;;;;;21.98;33.82;100758.66;5096166;28;20928;-61
2021/04/01 11:45:29;;;;;;;42.50;25.83;;;;;;;21.05;36.26;100766.22;5094108;28;20485;-62
2021/04/01 11:47:56;;;;;;;37.43;24.93;;;;;;;21.19;36.69;100772.63;5094551;28;20478;-61
2021/04/01 11:50:23;;;;;;;34.60;24.70;;;;;;;21.25;36.94;100771.84;5091776;28;20647;-63
2021/04/01 11:52:54;;;;;;;29.80;21.50;;;;;;;21.65;35.94;100773.97;5100668;28;20486;-63
2021/04/01 11:55:23;;;;;;;38.00;21.37;;;;;;;21.61;36.92;100770.81;5096018;28;20459;-61
2021/04/01 11:57:49;;;;;;;29.77;18.77;;;;;;;20.77;37.90;100775.19;5094157;28;20473;-63
2021/04/01 12:00:20;;;;;;;27.10;17.47;;;;;;;21.57;36.90;100780.44;5105047;28;20454;-64
2021/04/01 12:02:50;;;;;;;25.00;16.40;;;;;;;21.52;35.60;100772.03;5099767;28;20520;-63
2021/04/01 12:05:16;;;;;;;29.60;15.83;;;;;;;21.08;37.38;100778.59;5099092;28;20472;-63